Accueil
METAR-TAF:

METAR-TAF

Aéroports :

Shonai, Japon

latitude: 38-49N, longitude: 139-47E, altitude: 22 m

Observation

Le bulletin a été fait il y a 12 minutes, à 05:00 UTC
Vent 7 kt de nord/nord-ouest, variant entre ouest/nord-ouest et nord
Température 5°C
Humidité 60%
Pression 1026 hPa
Visibilité 10 km ou plus
Quelques nuages à une hauteur de 3000 ft
Nuages épars à une hauteur de 4000 ft
Nuages fragmentés à une hauteur de 7000 ft

METAR: RJSY 260500Z 33007KT 290V360 9999 FEW030 SCT040 BKN070 05/M02 Q1026

Heure: 14:12 (05:12 UTC)


TAF: absent

Observations et prévisions météorologiques de plus de 4000 aéroports (messages METAR et TAF).

Les stations disponibles sont représentées par des disques jaunes et rouges sur la carte.

Passer la souris dessus pour voir le nom de la station.

Cliquer dessus pour voir les observations et prévisions météorologiques.

Pour changer de carte: cliquez sur les boutons verts avec une croix noire pour zoomer, sur le bouton vert avec un tiret pour effectuer un zoom arrière, ou sur les flèches vertes pour les cartes adjacentes.


METAR-TAF: